createdAt,value
2023-02-09T00:00:21.863Z,20.80
2023-02-09T00:02:51.419Z,20.27
2023-02-09T00:05:21.016Z,22.23
2023-02-09T00:07:50.695Z,20.13
2023-02-09T00:10:20.566Z,19.30
2023-02-09T00:13:07.724Z,19.60
2023-02-09T00:15:37.799Z,19.43
2023-02-09T00:18:07.285Z,18.60
2023-02-09T00:20:36.781Z,20.20
2023-02-09T00:23:06.868Z,21.27
2023-02-09T00:25:37.888Z,19.47
2023-02-09T00:28:08.242Z,18.80
2023-02-09T00:30:38.872Z,16.77
2023-02-09T00:35:42.378Z,17.52
2023-02-09T00:38:13.482Z,17.33
2023-02-09T00:40:43.787Z,18.65
2023-02-09T00:43:13.846Z,17.73
2023-02-09T00:45:43.465Z,18.57
2023-02-09T00:48:13.118Z,19.07
2023-02-09T00:50:42.960Z,18.73
2023-02-09T00:53:12.749Z,18.67
2023-02-09T00:55:43.632Z,20.50
2023-02-09T00:58:13.193Z,20.67
2023-02-09T01:00:43.199Z,19.83
2023-02-09T01:03:12.998Z,18.93
2023-02-09T01:05:43.527Z,21.23
2023-02-09T01:08:14.069Z,20.48
2023-02-09T01:10:43.865Z,19.53
2023-02-09T01:13:13.908Z,20.23
2023-02-09T01:15:43.670Z,19.33
2023-02-09T01:18:14.318Z,22.85
2023-02-09T01:20:46.536Z,20.73
2023-02-09T01:23:16.354Z,21.30
2023-02-09T01:25:46.992Z,19.13
2023-02-09T01:28:16.844Z,19.40
2023-02-09T01:30:46.802Z,20.00
2023-02-09T01:33:16.561Z,18.57
2023-02-09T01:35:46.107Z,18.03
2023-02-09T01:38:15.973Z,21.87
2023-02-09T01:40:50.472Z,18.27
2023-02-09T01:43:20.042Z,20.87
2023-02-09T01:45:56.458Z,19.77
2023-02-09T01:48:29.577Z,20.83
2023-02-09T01:51:01.792Z,20.63
2023-02-09T01:53:31.619Z,19.37
2023-02-09T01:56:13.676Z,21.37
2023-02-09T01:58:46.567Z,22.13
2023-02-09T02:01:17.213Z,19.50
2023-02-09T02:06:18.081Z,18.33
2023-02-09T02:08:59.075Z,20.40
2023-02-09T02:11:29.845Z,17.95
2023-02-09T02:13:59.625Z,18.87
2023-02-09T02:16:41.155Z,20.47
2023-02-09T02:19:49.594Z,17.60
2023-02-09T02:22:45.996Z,17.50
2023-02-09T02:25:18.637Z,18.30
2023-02-09T02:28:17.005Z,20.37
2023-02-09T02:31:18.513Z,18.70
2023-02-09T02:34:23.297Z,19.23
2023-02-09T02:36:58.779Z,17.23
2023-02-09T02:39:33.851Z,17.98
2023-02-09T02:42:33.437Z,18.27
2023-02-09T02:45:21.239Z,19.60
2023-02-09T02:48:02.938Z,16.23
2023-02-09T02:50:35.833Z,19.37
2023-02-09T02:53:08.839Z,17.10
2023-02-09T02:55:39.853Z,17.23
2023-02-09T02:58:12.546Z,16.67
2023-02-09T03:00:48.335Z,18.17
2023-02-09T03:03:21.852Z,17.23
2023-02-09T03:05:52.360Z,16.63
2023-02-09T03:08:22.296Z,15.90
2023-02-09T03:10:52.297Z,19.50
2023-02-09T03:13:27.781Z,15.53
2023-02-09T03:16:09.236Z,16.57
2023-02-09T03:18:47.638Z,17.17
2023-02-09T03:21:49.524Z,17.12
2023-02-09T03:24:33.972Z,15.85
2023-02-09T03:27:12.294Z,16.77
2023-02-09T03:29:44.466Z,16.47
2023-02-09T03:32:16.129Z,17.80
2023-02-09T03:34:47.183Z,17.23
2023-02-09T03:37:16.663Z,16.37
2023-02-09T03:39:46.310Z,15.30
2023-02-09T03:42:16.216Z,17.00
2023-02-09T03:44:46.128Z,15.83
2023-02-09T03:47:16.843Z,15.25
2023-02-09T03:49:46.632Z,15.65
2023-02-09T03:52:18.141Z,14.03
2023-02-09T03:54:47.833Z,15.37
2023-02-09T03:57:17.552Z,15.77
2023-02-09T03:59:47.047Z,16.67
2023-02-09T04:02:16.866Z,15.68
2023-02-09T04:04:46.530Z,15.80
2023-02-09T04:07:16.418Z,16.87
2023-02-09T04:09:45.957Z,15.83
2023-02-09T04:12:15.627Z,15.07
2023-02-09T04:14:45.121Z,15.53
2023-02-09T04:17:15.000Z,15.77
2023-02-09T04:19:44.548Z,17.87
2023-02-09T04:22:14.339Z,17.37
2023-02-09T04:24:51.535Z,16.40
2023-02-09T04:27:28.389Z,18.37
2023-02-09T04:30:01.707Z,18.87
2023-02-09T04:32:31.206Z,16.90
2023-02-09T04:35:00.682Z,18.53
2023-02-09T04:37:30.500Z,17.20
2023-02-09T04:40:00.060Z,18.30
2023-02-09T04:42:31.959Z,17.87
2023-02-09T04:45:01.597Z,18.03
2023-02-09T04:47:31.077Z,18.53
2023-02-09T04:50:00.549Z,16.87
2023-02-09T04:52:30.227Z,21.40
2023-02-09T04:55:01.991Z,18.60
2023-02-09T04:57:49.632Z,17.27
2023-02-09T05:00:20.572Z,18.73
2023-02-09T05:02:54.948Z,17.07
2023-02-09T05:05:24.463Z,16.27
2023-02-09T05:07:54.935Z,17.47
2023-02-09T05:10:25.154Z,18.55
2023-02-09T05:12:54.659Z,17.83
2023-02-09T05:15:24.558Z,17.97
2023-02-09T05:17:55.548Z,20.90
2023-02-09T05:20:25.316Z,19.30
2023-02-09T05:22:59.634Z,19.67
2023-02-09T05:25:29.676Z,19.50
2023-02-09T05:27:59.365Z,18.77
2023-02-09T05:30:29.126Z,19.97
2023-02-09T05:32:59.326Z,19.70
2023-02-09T05:35:28.795Z,20.07
2023-02-09T05:37:58.306Z,21.93
2023-02-09T05:40:27.864Z,17.67
2023-02-09T05:42:57.612Z,19.53
2023-02-09T05:45:30.535Z,18.23
2023-02-09T05:48:00.136Z,20.00
2023-02-09T05:50:29.805Z,22.80
2023-02-09T05:53:02.574Z,20.33
2023-02-09T05:55:32.036Z,19.10
2023-02-09T05:58:05.313Z,17.63
2023-02-09T06:00:34.964Z,19.57
2023-02-09T06:03:04.810Z,18.97
2023-02-09T06:05:36.258Z,19.63
2023-02-09T06:08:06.747Z,19.17
2023-02-09T06:10:36.692Z,19.33
2023-02-09T06:13:10.904Z,18.00
2023-02-09T06:15:49.850Z,19.47
2023-02-09T06:18:19.429Z,20.40
2023-02-09T06:20:49.217Z,17.47
2023-02-09T06:23:18.907Z,17.20
2023-02-09T06:25:48.588Z,16.30
2023-02-09T06:28:21.575Z,16.30
2023-02-09T06:30:53.854Z,17.33
2023-02-09T06:33:23.462Z,19.00
2023-02-09T06:35:53.985Z,17.13
2023-02-09T06:38:24.718Z,17.32
2023-02-09T06:40:54.509Z,20.35
2023-02-09T06:43:26.173Z,19.27
2023-02-09T06:45:56.173Z,19.30
2023-02-09T06:48:25.700Z,19.73
2023-02-09T06:50:55.286Z,17.83
2023-02-09T06:53:26.883Z,19.93
2023-02-09T06:56:01.733Z,17.03
2023-02-09T06:58:31.474Z,19.23
2023-02-09T07:01:07.358Z,19.30
2023-02-09T07:03:39.039Z,21.50
2023-02-09T07:06:11.208Z,20.23
2023-02-09T07:08:41.223Z,20.07
2023-02-09T07:11:19.503Z,19.63
2023-02-09T07:13:50.142Z,20.17
2023-02-09T07:16:21.842Z,18.20
2023-02-09T07:18:51.475Z,19.07
2023-02-09T07:21:21.516Z,18.97
2023-02-09T07:23:53.336Z,16.00
2023-02-09T07:26:22.854Z,16.53
2023-02-09T07:28:52.543Z,15.70
2023-02-09T07:31:23.519Z,14.47
2023-02-09T07:36:24.025Z,14.55
2023-02-09T07:38:59.793Z,14.60
2023-02-09T07:41:29.770Z,12.83
2023-02-09T07:43:59.440Z,11.40
2023-02-09T07:46:29.181Z,10.93
2023-02-09T07:49:01.257Z,10.63
2023-02-09T07:51:32.362Z,10.13
2023-02-09T07:54:01.597Z,8.47
2023-02-09T07:56:31.456Z,7.87
2023-02-09T07:59:00.931Z,9.07
2023-02-09T08:01:30.538Z,7.07
2023-02-09T08:04:00.418Z,7.13
2023-02-09T08:06:43.301Z,7.60
2023-02-09T08:09:16.598Z,6.00
2023-02-09T08:11:51.812Z,6.80
2023-02-09T08:14:27.181Z,6.80
2023-02-09T08:17:18.256Z,6.47
2023-02-09T08:19:56.842Z,5.00
2023-02-09T08:22:29.404Z,5.90
2023-02-09T08:25:00.989Z,5.37
2023-02-09T08:27:31.701Z,5.50
2023-02-09T08:30:02.251Z,5.22
2023-02-09T08:32:31.724Z,5.23
2023-02-09T08:35:01.593Z,6.00
2023-02-09T08:37:32.032Z,5.67
2023-02-09T08:40:01.550Z,4.60
2023-02-09T08:42:31.369Z,6.10
2023-02-09T08:45:01.248Z,6.10
2023-02-09T08:47:31.004Z,5.63
2023-02-09T08:50:00.801Z,5.13
2023-02-09T08:52:30.586Z,4.70
2023-02-09T08:55:00.645Z,5.17
2023-02-09T08:57:43.026Z,7.40
2023-02-09T09:00:02.911Z,5.17
2023-02-09T09:02:33.513Z,5.53
2023-02-09T09:05:03.099Z,5.07
2023-02-09T09:07:32.902Z,4.60
2023-02-09T09:10:02.732Z,8.17
2023-02-09T09:12:32.605Z,5.70
2023-02-09T09:15:02.874Z,5.65
2023-02-09T09:17:32.973Z,5.30
2023-02-09T09:20:03.170Z,4.12
2023-02-09T09:22:32.910Z,5.10
2023-02-09T09:25:03.045Z,5.05
2023-02-09T09:27:35.025Z,3.43
2023-02-09T09:30:06.192Z,4.00
2023-02-09T09:32:36.179Z,4.50
2023-02-09T09:35:07.403Z,4.28
2023-02-09T09:37:37.143Z,3.70
2023-02-09T09:40:07.089Z,4.50
2023-02-09T09:42:39.893Z,3.83
2023-02-09T09:45:12.429Z,4.17
2023-02-09T09:47:44.120Z,4.07
2023-02-09T09:50:19.897Z,4.13
2023-02-09T09:52:52.791Z,4.23
2023-02-09T09:55:25.459Z,4.97
2023-02-09T09:57:57.997Z,4.43
2023-02-09T10:00:42.491Z,3.17
2023-02-09T10:03:23.165Z,4.20
2023-02-09T10:06:02.057Z,3.95
2023-02-09T10:08:54.127Z,3.53
2023-02-09T10:11:38.729Z,3.92
2023-02-09T10:14:10.643Z,3.70
2023-02-09T10:16:43.696Z,3.47
2023-02-09T10:19:22.137Z,4.12
2023-02-09T10:21:51.976Z,2.93
2023-02-09T10:24:30.448Z,4.10
2023-02-09T10:27:12.130Z,3.10
2023-02-09T10:29:42.236Z,4.27
2023-02-09T10:32:40.482Z,3.30
2023-02-09T10:35:24.672Z,4.83
2023-02-09T10:37:59.779Z,4.07
2023-02-09T10:40:35.198Z,3.53
2023-02-09T10:43:10.795Z,3.30
2023-02-09T10:45:43.579Z,3.30
2023-02-09T10:48:16.196Z,3.37
2023-02-09T10:50:51.814Z,3.53
2023-02-09T10:53:24.248Z,4.37
2023-02-09T10:56:08.968Z,3.13
2023-02-09T10:58:39.384Z,3.70
2023-02-09T11:01:12.224Z,3.57
2023-02-09T11:04:02.886Z,3.47
2023-02-09T11:06:53.768Z,3.77
2023-02-09T11:09:31.985Z,6.17
2023-02-09T11:12:02.880Z,3.63
2023-02-09T11:14:33.219Z,4.33
2023-02-09T11:17:37.429Z,4.80
2023-02-09T11:20:32.913Z,3.67
2023-02-09T11:23:22.356Z,3.15
2023-02-09T11:25:55.135Z,2.80
2023-02-09T11:28:39.815Z,3.40
2023-02-09T11:31:36.805Z,3.57
2023-02-09T11:34:33.960Z,4.60
2023-02-09T11:37:09.695Z,2.77
2023-02-09T11:39:42.543Z,4.07
2023-02-09T11:42:39.000Z,3.10
2023-02-09T11:45:14.418Z,3.57
2023-02-09T11:47:58.842Z,3.67
2023-02-09T11:50:34.198Z,3.57
2023-02-09T11:53:07.301Z,3.62
2023-02-09T11:55:45.720Z,2.40
2023-02-09T11:58:35.279Z,3.03
2023-02-09T12:01:17.875Z,4.80
2023-02-09T12:04:07.550Z,3.43
2023-02-09T12:06:45.388Z,3.43
2023-02-09T12:09:23.695Z,4.03
2023-02-09T12:12:14.588Z,3.02
2023-02-09T12:14:59.676Z,3.47
2023-02-09T12:17:43.748Z,4.53
2023-02-09T12:20:28.904Z,2.37
2023-02-09T12:23:13.406Z,3.37
2023-02-09T12:26:01.504Z,2.83
2023-02-09T12:28:34.470Z,2.90
2023-02-09T12:31:16.667Z,3.72
2023-02-09T12:33:49.599Z,2.90
2023-02-09T12:36:33.311Z,2.80
2023-02-09T12:39:06.324Z,3.57
2023-02-09T12:41:44.752Z,3.80
2023-02-09T12:44:18.275Z,3.10
2023-02-09T12:46:55.023Z,3.70
2023-02-09T12:49:33.690Z,5.35
2023-02-09T12:52:08.669Z,3.67
2023-02-09T12:54:56.930Z,6.73
2023-02-09T12:57:29.784Z,4.43
2023-02-09T13:00:03.778Z,2.77
2023-02-09T13:02:49.807Z,2.77
2023-02-09T13:05:32.913Z,4.07
2023-02-09T13:08:17.754Z,3.97
2023-02-09T13:11:05.770Z,2.77
2023-02-09T13:13:44.884Z,3.67
2023-02-09T13:16:27.248Z,3.37
2023-02-09T13:19:19.650Z,4.00
2023-02-09T13:22:01.188Z,3.57
2023-02-09T13:27:21.139Z,3.60
2023-02-09T13:29:56.097Z,3.83
2023-02-09T13:33:03.087Z,3.73
2023-02-09T13:35:51.012Z,4.80
2023-02-09T13:38:21.676Z,3.87
2023-02-09T13:40:52.330Z,3.33
2023-02-09T13:43:33.010Z,3.30
2023-02-09T13:46:03.745Z,3.55
2023-02-09T13:48:36.676Z,3.92
2023-02-09T13:51:18.982Z,3.93
2023-02-09T13:54:03.354Z,4.03
2023-02-09T13:56:35.658Z,3.93
2023-02-09T13:59:06.647Z,4.20
2023-02-09T14:01:38.121Z,3.77
2023-02-09T14:04:16.672Z,3.77
2023-02-09T14:06:52.238Z,4.03
2023-02-09T14:09:34.033Z,5.03
2023-02-09T14:12:09.426Z,3.37
2023-02-09T14:15:02.410Z,3.62
2023-02-09T14:17:39.360Z,3.98
2023-02-09T14:20:25.598Z,4.60
2023-02-09T14:23:00.648Z,3.98
2023-02-09T14:25:32.178Z,4.00
2023-02-09T14:28:01.975Z,5.08
2023-02-09T14:30:34.723Z,6.70
2023-02-09T14:33:06.096Z,4.47
2023-02-09T14:35:38.925Z,4.00
2023-02-09T14:38:27.608Z,2.97
2023-02-09T14:40:59.834Z,4.33
2023-02-09T14:43:29.284Z,4.67
2023-02-09T14:46:02.008Z,4.17
2023-02-09T14:48:32.136Z,4.00
2023-02-09T14:51:13.740Z,3.43
2023-02-09T14:53:44.807Z,4.17
2023-02-09T14:56:20.317Z,6.47
2023-02-09T14:58:50.072Z,4.80
2023-02-09T15:01:20.609Z,4.60
2023-02-09T15:03:50.337Z,5.05
2023-02-09T15:06:20.231Z,5.40
2023-02-09T15:08:49.985Z,5.70
2023-02-09T15:11:42.749Z,5.93
2023-02-09T15:14:11.832Z,4.90
2023-02-09T15:16:41.921Z,5.78
2023-02-09T15:19:17.441Z,5.33
2023-02-09T15:21:58.717Z,5.23
2023-02-09T15:24:18.404Z,6.83
2023-02-09T15:26:48.295Z,7.13
2023-02-09T15:29:18.064Z,5.53
2023-02-09T15:31:48.176Z,7.28
2023-02-09T15:34:17.687Z,7.17
2023-02-09T15:36:47.543Z,6.73
2023-02-09T15:39:25.172Z,6.30
2023-02-09T15:42:12.864Z,6.17
2023-02-09T15:45:00.451Z,6.23
2023-02-09T15:47:48.406Z,6.83
2023-02-09T15:50:18.246Z,6.30
2023-02-09T15:52:48.109Z,6.33
2023-02-09T15:55:20.593Z,6.60
2023-02-09T15:57:53.231Z,6.77
2023-02-09T16:00:27.720Z,6.47
2023-02-09T16:03:00.287Z,7.17
2023-02-09T16:05:31.076Z,8.30
2023-02-09T16:08:01.221Z,7.27
2023-02-09T16:10:31.855Z,7.70
2023-02-09T16:13:01.946Z,8.10
2023-02-09T16:15:31.840Z,7.00
2023-02-09T16:18:01.590Z,7.47
2023-02-09T16:20:31.493Z,8.13
2023-02-09T16:23:11.826Z,7.07
2023-02-09T16:25:34.752Z,6.78
2023-02-09T16:28:04.660Z,7.20
2023-02-09T16:30:36.449Z,7.67
2023-02-09T16:33:06.913Z,7.17
2023-02-09T16:35:38.363Z,6.90
2023-02-09T16:38:17.626Z,6.40
2023-02-09T16:40:47.834Z,7.83
2023-02-09T16:43:18.865Z,6.53
2023-02-09T16:46:02.376Z,7.67
2023-02-09T16:48:24.935Z,6.87
2023-02-09T16:50:57.404Z,8.97
2023-02-09T16:53:41.603Z,9.43
2023-02-09T16:56:15.355Z,8.08
2023-02-09T16:58:45.635Z,8.90
2023-02-09T17:01:18.313Z,8.47
2023-02-09T17:03:51.167Z,8.03
2023-02-09T17:06:23.909Z,8.95
2023-02-09T17:08:55.592Z,7.62
2023-02-09T17:11:27.727Z,8.43
2023-02-09T17:13:57.517Z,10.63
2023-02-09T17:16:30.530Z,9.90
2023-02-09T17:19:03.281Z,10.63
2023-02-09T17:21:38.629Z,8.63
2023-02-09T17:24:17.003Z,10.13
2023-02-09T17:26:46.811Z,9.23
2023-02-09T17:29:18.216Z,9.63
2023-02-09T17:34:20.244Z,9.60
2023-02-09T17:36:50.067Z,9.80
2023-02-09T17:39:19.653Z,11.87
2023-02-09T17:41:51.538Z,8.93
2023-02-09T17:44:44.668Z,8.85
2023-02-09T17:47:19.957Z,9.77
2023-02-09T17:50:09.907Z,9.25
2023-02-09T17:52:42.673Z,9.73
2023-02-09T17:55:19.405Z,11.45
2023-02-09T17:57:57.468Z,11.33
2023-02-09T18:00:30.082Z,8.63
2023-02-09T18:02:59.980Z,10.83
2023-02-09T18:05:31.704Z,8.88
2023-02-09T18:08:02.449Z,9.80
2023-02-09T18:10:32.234Z,8.90
2023-02-09T18:13:02.251Z,9.97
2023-02-09T18:15:37.764Z,9.53
2023-02-09T18:18:07.536Z,10.30
2023-02-09T18:20:37.868Z,10.93
2023-02-09T18:23:09.008Z,9.13
2023-02-09T18:25:40.154Z,11.50
2023-02-09T18:28:10.265Z,12.43
2023-02-09T18:30:40.790Z,11.53
2023-02-09T18:33:11.404Z,11.27
2023-02-09T18:35:46.001Z,10.48
2023-02-09T18:38:16.520Z,11.75
2023-02-09T18:40:46.158Z,10.43
2023-02-09T18:43:15.788Z,8.57
2023-02-09T18:45:45.974Z,7.10
2023-02-09T18:48:15.943Z,9.23
2023-02-09T18:50:45.745Z,8.17
2023-02-09T18:53:18.238Z,8.03
2023-02-09T18:55:53.374Z,8.43
2023-02-09T18:58:23.162Z,8.33
2023-02-09T19:00:52.849Z,6.93
2023-02-09T19:03:23.197Z,6.87
2023-02-09T19:05:52.764Z,7.07
2023-02-09T19:08:22.524Z,5.23
2023-02-09T19:10:52.383Z,5.53
2023-02-09T19:13:22.223Z,5.43
2023-02-09T19:15:52.069Z,5.60
2023-02-09T19:18:21.731Z,5.10
2023-02-09T19:20:53.157Z,5.37
2023-02-09T19:23:24.474Z,6.03
2023-02-09T19:26:05.991Z,6.20
2023-02-09T19:28:35.986Z,5.93
2023-02-09T19:31:12.873Z,5.87
2023-02-09T19:33:42.646Z,5.70
2023-02-09T19:36:12.496Z,4.47
2023-02-09T19:38:42.265Z,6.03
2023-02-09T19:41:13.534Z,5.50
2023-02-09T19:43:43.165Z,4.75
2023-02-09T19:46:13.172Z,4.47
2023-02-09T19:48:42.774Z,5.70
2023-02-09T19:51:13.601Z,5.97
2023-02-09T19:53:43.361Z,5.90
2023-02-09T19:56:17.213Z,6.57
2023-02-09T19:58:48.665Z,5.47
2023-02-09T20:01:19.550Z,5.33
2023-02-09T20:03:49.666Z,4.80
2023-02-09T20:06:19.662Z,5.43
2023-02-09T20:08:49.456Z,6.83
2023-02-09T20:11:21.001Z,6.00
2023-02-09T20:13:52.021Z,5.90
2023-02-09T20:16:25.812Z,5.85
2023-02-09T20:18:56.010Z,6.80
2023-02-09T20:21:26.046Z,6.30
2023-02-09T20:23:57.873Z,6.50
2023-02-09T20:26:32.294Z,5.70
2023-02-09T20:29:05.585Z,5.28
2023-02-09T20:31:38.120Z,6.57
2023-02-09T20:34:13.063Z,6.47
2023-02-09T20:36:45.426Z,6.17
2023-02-09T20:39:16.590Z,6.80
2023-02-09T20:42:08.176Z,6.92
2023-02-09T20:44:56.338Z,7.53
2023-02-09T20:47:27.507Z,6.72
2023-02-09T20:52:30.415Z,6.17
2023-02-09T20:55:00.170Z,6.47
2023-02-09T20:57:30.037Z,6.80
2023-02-09T21:00:01.407Z,7.63
2023-02-09T21:05:00.212Z,7.78
2023-02-09T21:07:33.411Z,8.00
2023-02-09T21:10:03.190Z,6.00
2023-02-09T21:12:32.964Z,6.63
2023-02-09T21:15:02.749Z,6.87
2023-02-09T21:17:32.489Z,6.83
2023-02-09T21:20:02.745Z,7.60
2023-02-09T21:22:33.326Z,6.27
2023-02-09T21:25:02.950Z,6.63
2023-02-09T21:27:33.024Z,6.77
2023-02-09T21:30:02.677Z,6.53
2023-02-09T21:32:34.069Z,7.23
2023-02-09T21:35:04.339Z,6.83
2023-02-09T21:37:34.458Z,7.72
2023-02-09T21:40:04.815Z,8.27
2023-02-09T21:42:36.150Z,7.50
2023-02-09T21:45:08.076Z,6.76
2023-02-09T21:47:39.599Z,6.47
2023-02-09T21:50:12.312Z,6.83
2023-02-09T21:52:42.093Z,6.23
2023-02-09T21:55:13.012Z,7.55
2023-02-09T22:00:12.751Z,8.87
2023-02-09T22:02:43.147Z,10.43
2023-02-09T22:05:13.474Z,9.08
2023-02-09T22:07:45.182Z,8.45
2023-02-09T22:10:15.717Z,9.15
2023-02-09T22:12:46.431Z,11.90
2023-02-09T22:15:17.978Z,13.97
2023-02-09T22:20:17.795Z,7.33
2023-02-09T22:22:49.734Z,6.80
2023-02-09T22:25:19.325Z,8.00
2023-02-09T22:27:49.256Z,6.77
2023-02-09T22:30:19.014Z,8.50
2023-02-09T22:32:48.949Z,7.93
2023-02-09T22:35:18.606Z,7.17
2023-02-09T22:37:48.408Z,8.13
2023-02-09T22:40:23.933Z,9.63
2023-02-09T22:42:54.893Z,8.88
2023-02-09T22:45:24.690Z,7.08
2023-02-09T22:47:54.399Z,7.13
2023-02-09T22:50:24.531Z,6.55
2023-02-09T22:52:54.025Z,7.53
2023-02-09T22:55:23.784Z,7.05
2023-02-09T22:57:53.577Z,7.70
2023-02-09T23:00:23.293Z,5.83
2023-02-09T23:02:54.202Z,6.77
2023-02-09T23:05:23.961Z,6.47
2023-02-09T23:07:53.756Z,7.50
2023-02-09T23:10:23.546Z,7.53
2023-02-09T23:12:53.318Z,6.90
2023-02-09T23:15:23.002Z,7.03
2023-02-09T23:17:52.773Z,7.00
2023-02-09T23:20:22.530Z,6.58
2023-02-09T23:22:54.370Z,6.87
2023-02-09T23:25:24.317Z,7.37
2023-02-09T23:27:54.071Z,5.50
2023-02-09T23:30:23.926Z,4.67
2023-02-09T23:32:54.195Z,5.13
2023-02-09T23:35:24.632Z,6.03
2023-02-09T23:37:54.117Z,6.17
2023-02-09T23:40:23.887Z,5.72
2023-02-09T23:42:53.678Z,7.30
2023-02-09T23:45:23.368Z,6.77
2023-02-09T23:47:53.414Z,5.90
2023-02-09T23:50:22.967Z,5.73
2023-02-09T23:52:52.855Z,7.57
2023-02-09T23:55:22.534Z,6.83
2023-02-09T23:57:52.318Z,6.27
